sensor_id;sensor_type;location;lat;lon;timestamp;P1;durP1;ratioP1;P2;durP2;ratioP2
18210;SDS011;9231;48.852;9.882;2023-06-22T00:02:13;10.17;;;7.53;;
18210;SDS011;9231;48.852;9.882;2023-06-22T00:04:40;13.60;;;7.17;;
18210;SDS011;9231;48.852;9.882;2023-06-22T00:07:08;8.97;;;7.90;;
18210;SDS011;9231;48.852;9.882;2023-06-22T00:09:34;8.57;;;7.60;;
18210;SDS011;9231;48.852;9.882;2023-06-22T00:12:01;10.52;;;8.07;;
18210;SDS011;9231;48.852;9.882;2023-06-22T00:14:27;9.27;;;7.95;;
18210;SDS011;9231;48.852;9.882;2023-06-22T00:16:54;9.80;;;7.68;;
18210;SDS011;9231;48.852;9.882;2023-06-22T00:19:22;9.53;;;7.67;;
18210;SDS011;9231;48.852;9.882;2023-06-22T00:21:48;9.77;;;7.45;;
18210;SDS011;9231;48.852;9.882;2023-06-22T00:24:19;9.40;;;7.93;;
18210;SDS011;9231;48.852;9.882;2023-06-22T00:26:47;10.88;;;7.30;;
18210;SDS011;9231;48.852;9.882;2023-06-22T00:29:13;9.30;;;7.63;;
18210;SDS011;9231;48.852;9.882;2023-06-22T00:31:40;10.10;;;7.38;;
18210;SDS011;9231;48.852;9.882;2023-06-22T00:34:06;9.20;;;7.68;;
18210;SDS011;9231;48.852;9.882;2023-06-22T00:36:33;7.97;;;7.18;;
18210;SDS011;9231;48.852;9.882;2023-06-22T00:39:00;8.95;;;7.78;;
18210;SDS011;9231;48.852;9.882;2023-06-22T00:41:28;9.02;;;7.65;;
18210;SDS011;9231;48.852;9.882;2023-06-22T00:43:54;11.32;;;8.40;;
18210;SDS011;9231;48.852;9.882;2023-06-22T00:46:21;10.25;;;7.85;;
18210;SDS011;9231;48.852;9.882;2023-06-22T00:48:48;8.70;;;7.47;;
18210;SDS011;9231;48.852;9.882;2023-06-22T00:51:15;8.60;;;7.70;;
18210;SDS011;9231;48.852;9.882;2023-06-22T00:53:41;8.07;;;7.37;;
18210;SDS011;9231;48.852;9.882;2023-06-22T00:56:08;8.02;;;7.28;;
18210;SDS011;9231;48.852;9.882;2023-06-22T00:58:38;8.25;;;7.13;;
18210;SDS011;9231;48.852;9.882;2023-06-22T01:01:06;11.02;;;7.55;;
18210;SDS011;9231;48.852;9.882;2023-06-22T01:03:32;10.82;;;7.70;;
18210;SDS011;9231;48.852;9.882;2023-06-22T01:06:01;10.77;;;7.77;;
18210;SDS011;9231;48.852;9.882;2023-06-22T01:08:29;9.37;;;8.00;;
18210;SDS011;9231;48.852;9.882;2023-06-22T01:10:58;8.47;;;6.90;;
18210;SDS011;9231;48.852;9.882;2023-06-22T01:13:28;13.97;;;8.40;;
18210;SDS011;9231;48.852;9.882;2023-06-22T01:15:59;10.90;;;7.80;;
18210;SDS011;9231;48.852;9.882;2023-06-22T01:18:26;11.63;;;8.37;;
18210;SDS011;9231;48.852;9.882;2023-06-22T01:20:54;11.27;;;7.80;;
18210;SDS011;9231;48.852;9.882;2023-06-22T01:23:26;13.17;;;8.47;;
18210;SDS011;9231;48.852;9.882;2023-06-22T01:25:56;11.33;;;7.67;;
18210;SDS011;9231;48.852;9.882;2023-06-22T01:28:31;9.13;;;7.23;;
18210;SDS011;9231;48.852;9.882;2023-06-22T01:30:58;8.67;;;7.53;;
18210;SDS011;9231;48.852;9.882;2023-06-22T01:33:31;8.27;;;6.67;;
18210;SDS011;9231;48.852;9.882;2023-06-22T01:35:59;11.17;;;8.80;;
18210;SDS011;9231;48.852;9.882;2023-06-22T01:38:26;8.83;;;7.60;;
18210;SDS011;9231;48.852;9.882;2023-06-22T01:40:54;8.23;;;7.37;;
18210;SDS011;9231;48.852;9.882;2023-06-22T01:43:21;9.93;;;7.90;;
18210;SDS011;9231;48.852;9.882;2023-06-22T01:45:49;9.33;;;7.87;;
18210;SDS011;9231;48.852;9.882;2023-06-22T01:48:16;7.43;;;6.73;;
18210;SDS011;9231;48.852;9.882;2023-06-22T01:50:42;8.90;;;7.50;;
18210;SDS011;9231;48.852;9.882;2023-06-22T01:53:09;9.37;;;8.47;;
18210;SDS011;9231;48.852;9.882;2023-06-22T01:55:35;11.50;;;9.17;;
18210;SDS011;9231;48.852;9.882;2023-06-22T01:58:01;12.60;;;9.20;;
18210;SDS011;9231;48.852;9.882;2023-06-22T02:00:28;9.03;;;8.07;;
18210;SDS011;9231;48.852;9.882;2023-06-22T02:02:59;9.17;;;7.63;;
18210;SDS011;9231;48.852;9.882;2023-06-22T02:05:29;9.70;;;7.83;;
18210;SDS011;9231;48.852;9.882;2023-06-22T02:08:00;8.07;;;7.03;;
18210;SDS011;9231;48.852;9.882;2023-06-22T02:10:28;7.73;;;7.00;;
18210;SDS011;9231;48.852;9.882;2023-06-22T02:12:55;7.20;;;6.40;;
18210;SDS011;9231;48.852;9.882;2023-06-22T02:15:23;6.70;;;6.10;;
18210;SDS011;9231;48.852;9.882;2023-06-22T02:17:49;7.63;;;6.93;;
18210;SDS011;9231;48.852;9.882;2023-06-22T02:20:17;9.57;;;7.87;;
18210;SDS011;9231;48.852;9.882;2023-06-22T02:22:44;8.57;;;7.67;;
18210;SDS011;9231;48.852;9.882;2023-06-22T02:25:10;12.10;;;7.90;;
18210;SDS011;9231;48.852;9.882;2023-06-22T02:27:37;10.03;;;7.60;;
18210;SDS011;9231;48.852;9.882;2023-06-22T02:30:06;9.33;;;7.10;;
18210;SDS011;9231;48.852;9.882;2023-06-22T02:32:32;9.93;;;7.10;;
18210;SDS011;9231;48.852;9.882;2023-06-22T02:34:59;9.37;;;6.77;;
18210;SDS011;9231;48.852;9.882;2023-06-22T02:37:30;8.73;;;7.07;;
18210;SDS011;9231;48.852;9.882;2023-06-22T02:39:56;9.30;;;6.47;;
18210;SDS011;9231;48.852;9.882;2023-06-22T02:42:23;8.57;;;6.97;;
18210;SDS011;9231;48.852;9.882;2023-06-22T02:44:49;9.50;;;7.30;;
18210;SDS011;9231;48.852;9.882;2023-06-22T02:47:16;8.30;;;7.00;;
18210;SDS011;9231;48.852;9.882;2023-06-22T02:49:42;8.13;;;6.80;;
18210;SDS011;9231;48.852;9.882;2023-06-22T02:52:10;8.63;;;7.47;;
18210;SDS011;9231;48.852;9.882;2023-06-22T02:54:37;8.23;;;7.03;;
18210;SDS011;9231;48.852;9.882;2023-06-22T02:57:04;11.43;;;8.57;;
18210;SDS011;9231;48.852;9.882;2023-06-22T02:59:31;13.30;;;9.40;;
18210;SDS011;9231;48.852;9.882;2023-06-22T03:01:57;15.03;;;9.27;;
18210;SDS011;9231;48.852;9.882;2023-06-22T03:04:24;14.30;;;9.27;;
18210;SDS011;9231;48.852;9.882;2023-06-22T03:06:50;10.43;;;9.10;;
18210;SDS011;9231;48.852;9.882;2023-06-22T03:09:17;10.43;;;9.00;;
18210;SDS011;9231;48.852;9.882;2023-06-22T03:11:45;10.20;;;9.00;;
18210;SDS011;9231;48.852;9.882;2023-06-22T03:14:11;11.73;;;9.20;;
18210;SDS011;9231;48.852;9.882;2023-06-22T03:16:37;12.57;;;9.03;;
18210;SDS011;9231;48.852;9.882;2023-06-22T03:19:06;12.80;;;9.70;;
18210;SDS011;9231;48.852;9.882;2023-06-22T03:21:32;11.83;;;9.80;;
18210;SDS011;9231;48.852;9.882;2023-06-22T03:23:58;11.43;;;9.20;;
18210;SDS011;9231;48.852;9.882;2023-06-22T03:26:25;11.47;;;9.53;;
18210;SDS011;9231;48.852;9.882;2023-06-22T03:28:53;10.13;;;9.13;;
18210;SDS011;9231;48.852;9.882;2023-06-22T03:31:19;11.77;;;9.67;;
18210;SDS011;9231;48.852;9.882;2023-06-22T03:33:46;11.53;;;9.43;;
18210;SDS011;9231;48.852;9.882;2023-06-22T03:36:13;12.60;;;9.67;;
18210;SDS011;9231;48.852;9.882;2023-06-22T03:38:41;10.60;;;8.90;;
18210;SDS011;9231;48.852;9.882;2023-06-22T03:41:07;12.40;;;9.83;;
18210;SDS011;9231;48.852;9.882;2023-06-22T03:43:34;12.80;;;9.50;;
18210;SDS011;9231;48.852;9.882;2023-06-22T03:46:02;19.70;;;10.33;;
18210;SDS011;9231;48.852;9.882;2023-06-22T03:48:28;16.83;;;10.33;;
18210;SDS011;9231;48.852;9.882;2023-06-22T03:50:55;14.93;;;10.40;;
18210;SDS011;9231;48.852;9.882;2023-06-22T03:53:21;10.77;;;8.90;;
18210;SDS011;9231;48.852;9.882;2023-06-22T03:55:48;12.97;;;9.10;;
18210;SDS011;9231;48.852;9.882;2023-06-22T03:58:15;11.33;;;9.80;;
18210;SDS011;9231;48.852;9.882;2023-06-22T04:00:41;11.73;;;9.17;;
18210;SDS011;9231;48.852;9.882;2023-06-22T04:03:09;10.40;;;9.13;;
18210;SDS011;9231;48.852;9.882;2023-06-22T04:05:37;10.13;;;9.00;;
18210;SDS011;9231;48.852;9.882;2023-06-22T04:08:04;9.83;;;8.43;;
18210;SDS011;9231;48.852;9.882;2023-06-22T04:10:30;11.00;;;8.93;;
18210;SDS011;9231;48.852;9.882;2023-06-22T04:12:57;11.30;;;9.57;;
18210;SDS011;9231;48.852;9.882;2023-06-22T04:15:23;10.73;;;8.83;;
18210;SDS011;9231;48.852;9.882;2023-06-22T04:17:50;12.20;;;9.43;;
18210;SDS011;9231;48.852;9.882;2023-06-22T04:20:17;10.90;;;8.90;;
18210;SDS011;9231;48.852;9.882;2023-06-22T04:22:44;10.73;;;8.60;;
18210;SDS011;9231;48.852;9.882;2023-06-22T04:25:11;14.10;;;9.10;;
18210;SDS011;9231;48.852;9.882;2023-06-22T04:27:37;13.10;;;9.27;;
18210;SDS011;9231;48.852;9.882;2023-06-22T04:30:06;10.33;;;9.33;;
18210;SDS011;9231;48.852;9.882;2023-06-22T04:32:32;13.17;;;8.50;;
18210;SDS011;9231;48.852;9.882;2023-06-22T04:35:01;11.17;;;10.00;;
18210;SDS011;9231;48.852;9.882;2023-06-22T04:37:28;12.83;;;9.63;;
18210;SDS011;9231;48.852;9.882;2023-06-22T04:39:55;14.03;;;10.07;;
18210;SDS011;9231;48.852;9.882;2023-06-22T04:42:21;13.10;;;10.67;;
18210;SDS011;9231;48.852;9.882;2023-06-22T04:44:47;13.70;;;9.87;;
18210;SDS011;9231;48.852;9.882;2023-06-22T04:47:14;10.70;;;9.60;;
18210;SDS011;9231;48.852;9.882;2023-06-22T04:49:40;11.53;;;10.03;;
18210;SDS011;9231;48.852;9.882;2023-06-22T04:52:08;10.93;;;8.87;;
18210;SDS011;9231;48.852;9.882;2023-06-22T04:54:37;12.73;;;9.70;;
18210;SDS011;9231;48.852;9.882;2023-06-22T04:57:05;12.60;;;10.27;;
18210;SDS011;9231;48.852;9.882;2023-06-22T04:59:35;12.33;;;9.63;;
18210;SDS011;9231;48.852;9.882;2023-06-22T05:02:02;15.20;;;9.87;;
18210;SDS011;9231;48.852;9.882;2023-06-22T05:04:29;14.77;;;10.00;;
18210;SDS011;9231;48.852;9.882;2023-06-22T05:06:56;12.13;;;9.83;;
18210;SDS011;9231;48.852;9.882;2023-06-22T05:09:23;11.50;;;9.37;;
18210;SDS011;9231;48.852;9.882;2023-06-22T05:11:51;11.20;;;9.63;;
18210;SDS011;9231;48.852;9.882;2023-06-22T05:14:18;13.87;;;9.13;;
18210;SDS011;9231;48.852;9.882;2023-06-22T05:16:45;9.50;;;8.20;;
18210;SDS011;9231;48.852;9.882;2023-06-22T05:19:11;10.73;;;9.53;;
18210;SDS011;9231;48.852;9.882;2023-06-22T05:21:38;11.90;;;8.80;;
18210;SDS011;9231;48.852;9.882;2023-06-22T05:24:05;14.37;;;9.27;;
18210;SDS011;9231;48.852;9.882;2023-06-22T05:26:31;8.83;;;7.93;;
18210;SDS011;9231;48.852;9.882;2023-06-22T05:28:59;11.63;;;8.47;;
18210;SDS011;9231;48.852;9.882;2023-06-22T05:31:27;11.33;;;8.67;;
18210;SDS011;9231;48.852;9.882;2023-06-22T05:33:54;10.97;;;8.70;;
18210;SDS011;9231;48.852;9.882;2023-06-22T05:36:21;9.73;;;8.60;;
18210;SDS011;9231;48.852;9.882;2023-06-22T05:38:50;11.05;;;9.02;;
18210;SDS011;9231;48.852;9.882;2023-06-22T05:41:16;9.73;;;8.30;;
18210;SDS011;9231;48.852;9.882;2023-06-22T05:43:43;12.05;;;7.93;;
18210;SDS011;9231;48.852;9.882;2023-06-22T05:46:10;11.87;;;7.63;;
18210;SDS011;9231;48.852;9.882;2023-06-22T05:48:37;9.75;;;8.75;;
18210;SDS011;9231;48.852;9.882;2023-06-22T05:51:03;9.75;;;8.25;;
18210;SDS011;9231;48.852;9.882;2023-06-22T05:53:30;9.55;;;7.57;;
18210;SDS011;9231;48.852;9.882;2023-06-22T05:55:56;13.05;;;8.25;;
18210;SDS011;9231;48.852;9.882;2023-06-22T05:58:23;8.23;;;7.38;;
18210;SDS011;9231;48.852;9.882;2023-06-22T06:00:49;11.57;;;7.90;;
18210;SDS011;9231;48.852;9.882;2023-06-22T06:03:17;10.07;;;8.70;;
18210;SDS011;9231;48.852;9.882;2023-06-22T06:05:43;10.02;;;7.60;;
18210;SDS011;9231;48.852;9.882;2023-06-22T06:08:10;10.15;;;7.75;;
18210;SDS011;9231;48.852;9.882;2023-06-22T06:10:37;10.02;;;7.80;;
18210;SDS011;9231;48.852;9.882;2023-06-22T06:13:03;9.57;;;7.57;;
18210;SDS011;9231;48.852;9.882;2023-06-22T06:15:30;9.93;;;7.22;;
18210;SDS011;9231;48.852;9.882;2023-06-22T06:17:57;8.30;;;7.28;;
18210;SDS011;9231;48.852;9.882;2023-06-22T06:20:25;8.77;;;7.13;;
18210;SDS011;9231;48.852;9.882;2023-06-22T06:22:52;7.28;;;6.47;;
18210;SDS011;9231;48.852;9.882;2023-06-22T06:25:19;9.68;;;5.88;;
18210;SDS011;9231;48.852;9.882;2023-06-22T06:27:47;10.93;;;7.13;;
18210;SDS011;9231;48.852;9.882;2023-06-22T06:30:14;8.25;;;6.82;;
18210;SDS011;9231;48.852;9.882;2023-06-22T06:32:41;7.05;;;6.07;;
18210;SDS011;9231;48.852;9.882;2023-06-22T06:35:08;6.53;;;5.38;;
18210;SDS011;9231;48.852;9.882;2023-06-22T06:37:37;7.60;;;5.93;;
18210;SDS011;9231;48.852;9.882;2023-06-22T06:40:04;8.70;;;6.43;;
18210;SDS011;9231;48.852;9.882;2023-06-22T06:42:33;8.77;;;6.38;;
18210;SDS011;9231;48.852;9.882;2023-06-22T06:44:59;7.70;;;5.65;;
18210;SDS011;9231;48.852;9.882;2023-06-22T06:47:26;11.77;;;5.53;;
18210;SDS011;9231;48.852;9.882;2023-06-22T06:49:52;6.60;;;5.72;;
18210;SDS011;9231;48.852;9.882;2023-06-22T06:52:19;8.68;;;5.93;;
18210;SDS011;9231;48.852;9.882;2023-06-22T06:54:47;7.57;;;5.35;;
18210;SDS011;9231;48.852;9.882;2023-06-22T06:57:13;7.75;;;5.10;;
18210;SDS011;9231;48.852;9.882;2023-06-22T06:59:40;7.05;;;5.13;;
18210;SDS011;9231;48.852;9.882;2023-06-22T07:02:07;11.82;;;5.40;;
18210;SDS011;9231;48.852;9.882;2023-06-22T07:04:33;6.65;;;5.25;;
18210;SDS011;9231;48.852;9.882;2023-06-22T07:07:00;6.07;;;4.55;;
18210;SDS011;9231;48.852;9.882;2023-06-22T07:09:27;5.90;;;4.72;;
18210;SDS011;9231;48.852;9.882;2023-06-22T07:11:55;5.22;;;4.30;;
18210;SDS011;9231;48.852;9.882;2023-06-22T07:14:21;7.28;;;4.25;;
18210;SDS011;9231;48.852;9.882;2023-06-22T07:16:48;6.38;;;3.78;;
18210;SDS011;9231;48.852;9.882;2023-06-22T07:19:14;7.78;;;3.78;;
18210;SDS011;9231;48.852;9.882;2023-06-22T07:21:41;6.43;;;3.22;;
18210;SDS011;9231;48.852;9.882;2023-06-22T07:24:07;5.10;;;3.60;;
18210;SDS011;9231;48.852;9.882;2023-06-22T07:26:34;5.70;;;3.50;;
18210;SDS011;9231;48.852;9.882;2023-06-22T07:29:01;7.93;;;3.33;;
18210;SDS011;9231;48.852;9.882;2023-06-22T07:31:29;7.32;;;3.65;;
18210;SDS011;9231;48.852;9.882;2023-06-22T07:33:55;3.70;;;2.80;;
18210;SDS011;9231;48.852;9.882;2023-06-22T07:36:22;5.07;;;3.17;;
18210;SDS011;9231;48.852;9.882;2023-06-22T07:38:48;5.65;;;3.30;;
18210;SDS011;9231;48.852;9.882;2023-06-22T07:41:15;8.02;;;3.53;;
18210;SDS011;9231;48.852;9.882;2023-06-22T07:43:41;7.15;;;3.00;;
18210;SDS011;9231;48.852;9.882;2023-06-22T07:46:09;6.65;;;3.40;;
18210;SDS011;9231;48.852;9.882;2023-06-22T07:48:36;6.28;;;2.85;;
18210;SDS011;9231;48.852;9.882;2023-06-22T07:51:03;6.80;;;3.35;;
18210;SDS011;9231;48.852;9.882;2023-06-22T07:53:29;9.45;;;3.70;;
18210;SDS011;9231;48.852;9.882;2023-06-22T07:55:55;6.65;;;3.33;;
18210;SDS011;9231;48.852;9.882;2023-06-22T07:58:22;4.55;;;3.05;;
18210;SDS011;9231;48.852;9.882;2023-06-22T08:00:48;6.72;;;3.17;;
18210;SDS011;9231;48.852;9.882;2023-06-22T08:03:16;7.07;;;3.50;;
18210;SDS011;9231;48.852;9.882;2023-06-22T08:05:43;7.03;;;3.47;;
18210;SDS011;9231;48.852;9.882;2023-06-22T08:08:09;7.10;;;2.88;;
18210;SDS011;9231;48.852;9.882;2023-06-22T08:10:36;5.18;;;2.92;;
18210;SDS011;9231;48.852;9.882;2023-06-22T08:13:02;10.15;;;3.42;;
18210;SDS011;9231;48.852;9.882;2023-06-22T08:15:29;6.47;;;3.40;;
18210;SDS011;9231;48.852;9.882;2023-06-22T08:17:55;8.10;;;3.70;;
18210;SDS011;9231;48.852;9.882;2023-06-22T08:20:24;7.32;;;3.47;;
18210;SDS011;9231;48.852;9.882;2023-06-22T08:22:50;11.60;;;3.80;;
18210;SDS011;9231;48.852;9.882;2023-06-22T08:25:17;6.65;;;3.38;;
18210;SDS011;9231;48.852;9.882;2023-06-22T08:27:44;7.97;;;3.92;;
18210;SDS011;9231;48.852;9.882;2023-06-22T08:30:11;10.15;;;3.60;;
18210;SDS011;9231;48.852;9.882;2023-06-22T08:32:37;7.55;;;3.50;;
18210;SDS011;9231;48.852;9.882;2023-06-22T08:35:04;8.02;;;3.90;;
18210;SDS011;9231;48.852;9.882;2023-06-22T08:37:34;8.90;;;4.03;;
18210;SDS011;9231;48.852;9.882;2023-06-22T08:40:02;7.63;;;3.67;;
18210;SDS011;9231;48.852;9.882;2023-06-22T08:42:30;7.78;;;3.65;;
18210;SDS011;9231;48.852;9.882;2023-06-22T08:44:56;14.52;;;4.28;;
18210;SDS011;9231;48.852;9.882;2023-06-22T08:47:23;9.02;;;4.38;;
18210;SDS011;9231;48.852;9.882;2023-06-22T08:49:50;8.52;;;4.07;;
18210;SDS011;9231;48.852;9.882;2023-06-22T08:52:17;7.07;;;3.53;;
18210;SDS011;9231;48.852;9.882;2023-06-22T08:54:45;11.85;;;4.40;;
18210;SDS011;9231;48.852;9.882;2023-06-22T08:57:11;8.60;;;4.13;;
18210;SDS011;9231;48.852;9.882;2023-06-22T08:59:37;10.80;;;3.88;;
18210;SDS011;9231;48.852;9.882;2023-06-22T09:02:05;8.70;;;4.13;;
18210;SDS011;9231;48.852;9.882;2023-06-22T09:04:31;10.25;;;4.25;;
18210;SDS011;9231;48.852;9.882;2023-06-22T09:07:01;8.02;;;3.85;;
18210;SDS011;9231;48.852;9.882;2023-06-22T09:09:28;8.48;;;4.00;;
18210;SDS011;9231;48.852;9.882;2023-06-22T09:11:56;7.70;;;3.85;;
18210;SDS011;9231;48.852;9.882;2023-06-22T09:14:22;11.90;;;4.53;;
18210;SDS011;9231;48.852;9.882;2023-06-22T09:16:49;12.85;;;4.25;;
18210;SDS011;9231;48.852;9.882;2023-06-22T09:19:15;11.43;;;5.00;;
18210;SDS011;9231;48.852;9.882;2023-06-22T09:21:42;11.65;;;4.88;;
18210;SDS011;9231;48.852;9.882;2023-06-22T09:24:08;11.05;;;4.90;;
18210;SDS011;9231;48.852;9.882;2023-06-22T09:26:35;16.45;;;4.43;;
18210;SDS011;9231;48.852;9.882;2023-06-22T09:29:03;10.75;;;4.40;;
18210;SDS011;9231;48.852;9.882;2023-06-22T09:31:31;7.93;;;4.75;;
18210;SDS011;9231;48.852;9.882;2023-06-22T09:33:57;10.02;;;4.50;;
18210;SDS011;9231;48.852;9.882;2023-06-22T09:36:24;8.85;;;4.50;;
18210;SDS011;9231;48.852;9.882;2023-06-22T09:38:50;11.68;;;4.90;;
18210;SDS011;9231;48.852;9.882;2023-06-22T09:41:20;11.02;;;5.13;;
18210;SDS011;9231;48.852;9.882;2023-06-22T09:43:47;7.75;;;3.90;;
18210;SDS011;9231;48.852;9.882;2023-06-22T09:46:15;11.35;;;5.28;;
18210;SDS011;9231;48.852;9.882;2023-06-22T09:48:42;13.98;;;5.13;;
18210;SDS011;9231;48.852;9.882;2023-06-22T09:51:08;8.63;;;4.53;;
18210;SDS011;9231;48.852;9.882;2023-06-22T09:53:35;8.95;;;4.93;;
18210;SDS011;9231;48.852;9.882;2023-06-22T09:56:02;10.10;;;5.03;;
18210;SDS011;9231;48.852;9.882;2023-06-22T09:58:28;10.57;;;4.75;;
18210;SDS011;9231;48.852;9.882;2023-06-22T10:00:55;8.60;;;4.57;;
18210;SDS011;9231;48.852;9.882;2023-06-22T10:03:23;9.95;;;5.13;;
18210;SDS011;9231;48.852;9.882;2023-06-22T10:05:49;10.82;;;5.03;;
18210;SDS011;9231;48.852;9.882;2023-06-22T10:08:16;11.25;;;5.65;;
18210;SDS011;9231;48.852;9.882;2023-06-22T10:10:42;9.85;;;5.15;;
18210;SDS011;9231;48.852;9.882;2023-06-22T10:13:09;11.80;;;5.05;;
18210;SDS011;9231;48.852;9.882;2023-06-22T10:15:36;13.02;;;5.63;;
18210;SDS011;9231;48.852;9.882;2023-06-22T10:18:03;10.50;;;5.03;;
18210;SDS011;9231;48.852;9.882;2023-06-22T10:20:31;11.30;;;5.53;;
18210;SDS011;9231;48.852;9.882;2023-06-22T10:22:57;7.93;;;4.75;;
18210;SDS011;9231;48.852;9.882;2023-06-22T10:25:24;12.23;;;5.15;;
18210;SDS011;9231;48.852;9.882;2023-06-22T10:27:52;11.65;;;4.80;;
18210;SDS011;9231;48.852;9.882;2023-06-22T10:30:19;9.77;;;5.25;;
18210;SDS011;9231;48.852;9.882;2023-06-22T10:32:45;11.02;;;4.22;;
18210;SDS011;9231;48.852;9.882;2023-06-22T10:35:11;11.05;;;5.22;;
18210;SDS011;9231;48.852;9.882;2023-06-22T10:37:42;10.43;;;4.93;;
18210;SDS011;9231;48.852;9.882;2023-06-22T10:40:09;11.23;;;5.07;;
18210;SDS011;9231;48.852;9.882;2023-06-22T10:42:36;9.88;;;5.18;;
18210;SDS011;9231;48.852;9.882;2023-06-22T10:45:02;9.52;;;5.60;;
18210;SDS011;9231;48.852;9.882;2023-06-22T10:47:29;13.57;;;5.10;;
18210;SDS011;9231;48.852;9.882;2023-06-22T10:49:55;10.40;;;5.05;;
18210;SDS011;9231;48.852;9.882;2023-06-22T10:52:22;10.98;;;4.80;;
18210;SDS011;9231;48.852;9.882;2023-06-22T10:54:49;15.18;;;5.60;;
18210;SDS011;9231;48.852;9.882;2023-06-22T10:57:17;7.78;;;4.97;;
18210;SDS011;9231;48.852;9.882;2023-06-22T10:59:43;12.75;;;5.35;;
18210;SDS011;9231;48.852;9.882;2023-06-22T11:02:10;11.40;;;4.72;;
18210;SDS011;9231;48.852;9.882;2023-06-22T11:04:36;9.70;;;5.13;;
18210;SDS011;9231;48.852;9.882;2023-06-22T11:07:03;15.88;;;5.53;;
18210;SDS011;9231;48.852;9.882;2023-06-22T11:09:29;11.25;;;4.72;;
18210;SDS011;9231;48.852;9.882;2023-06-22T11:11:57;10.20;;;4.88;;
18210;SDS011;9231;48.852;9.882;2023-06-22T11:14:24;12.70;;;5.05;;
18210;SDS011;9231;48.852;9.882;2023-06-22T11:16:50;12.10;;;4.97;;
18210;SDS011;9231;48.852;9.882;2023-06-22T11:19:18;15.75;;;5.05;;
18210;SDS011;9231;48.852;9.882;2023-06-22T11:21:44;12.45;;;4.75;;
18210;SDS011;9231;48.852;9.882;2023-06-22T11:24:11;13.65;;;5.28;;
18210;SDS011;9231;48.852;9.882;2023-06-22T11:26:37;12.10;;;5.28;;
18210;SDS011;9231;48.852;9.882;2023-06-22T11:29:05;14.32;;;5.18;;
18210;SDS011;9231;48.852;9.882;2023-06-22T11:31:33;9.55;;;5.38;;
18210;SDS011;9231;48.852;9.882;2023-06-22T11:33:59;11.63;;;4.95;;
18210;SDS011;9231;48.852;9.882;2023-06-22T11:36:26;11.50;;;4.95;;
18210;SDS011;9231;48.852;9.882;2023-06-22T11:38:54;16.33;;;5.68;;
18210;SDS011;9231;48.852;9.882;2023-06-22T11:41:20;13.02;;;5.00;;
18210;SDS011;9231;48.852;9.882;2023-06-22T11:43:47;13.48;;;4.72;;
18210;SDS011;9231;48.852;9.882;2023-06-22T11:46:15;11.30;;;4.85;;
18210;SDS011;9231;48.852;9.882;2023-06-22T11:48:41;12.23;;;5.00;;
18210;SDS011;9231;48.852;9.882;2023-06-22T11:51:08;19.70;;;6.10;;
18210;SDS011;9231;48.852;9.882;2023-06-22T11:53:34;13.10;;;5.60;;
18210;SDS011;9231;48.852;9.882;2023-06-22T11:56:01;13.68;;;5.63;;
18210;SDS011;9231;48.852;9.882;2023-06-22T11:58:27;15.15;;;5.88;;
18210;SDS011;9231;48.852;9.882;2023-06-22T12:00:54;10.52;;;5.20;;
18210;SDS011;9231;48.852;9.882;2023-06-22T12:03:22;12.50;;;5.68;;
18210;SDS011;9231;48.852;9.882;2023-06-22T12:05:49;15.15;;;5.68;;
18210;SDS011;9231;48.852;9.882;2023-06-22T12:08:15;11.65;;;5.28;;
18210;SDS011;9231;48.852;9.882;2023-06-22T12:10:42;14.05;;;5.35;;
18210;SDS011;9231;48.852;9.882;2023-06-22T12:13:08;16.13;;;5.43;;
18210;SDS011;9231;48.852;9.882;2023-06-22T12:15:34;8.98;;;5.03;;
18210;SDS011;9231;48.852;9.882;2023-06-22T12:18:01;12.45;;;5.55;;
18210;SDS011;9231;48.852;9.882;2023-06-22T12:20:29;14.75;;;5.28;;
18210;SDS011;9231;48.852;9.882;2023-06-22T12:22:55;13.05;;;4.80;;
18210;SDS011;9231;48.852;9.882;2023-06-22T12:25:23;15.02;;;5.97;;
18210;SDS011;9231;48.852;9.882;2023-06-22T12:27:49;12.02;;;5.43;;
18210;SDS011;9231;48.852;9.882;2023-06-22T12:30:16;13.75;;;5.05;;
18210;SDS011;9231;48.852;9.882;2023-06-22T12:32:42;12.68;;;5.57;;
18210;SDS011;9231;48.852;9.882;2023-06-22T12:35:09;17.30;;;5.47;;
18210;SDS011;9231;48.852;9.882;2023-06-22T12:37:40;14.32;;;5.30;;
18210;SDS011;9231;48.852;9.882;2023-06-22T12:40:07;12.45;;;5.30;;
18210;SDS011;9231;48.852;9.882;2023-06-22T12:42:33;11.13;;;5.75;;
18210;SDS011;9231;48.852;9.882;2023-06-22T12:45:00;17.45;;;5.25;;
18210;SDS011;9231;48.852;9.882;2023-06-22T12:47:26;13.43;;;5.43;;
18210;SDS011;9231;48.852;9.882;2023-06-22T12:49:53;11.48;;;5.10;;
18210;SDS011;9231;48.852;9.882;2023-06-22T12:55:22;12.85;;;5.20;;
18210;SDS011;9231;48.852;9.882;2023-06-22T12:57:49;13.00;;;5.47;;
18210;SDS011;9231;48.852;9.882;2023-06-22T13:00:15;7.90;;;4.93;;
18210;SDS011;9231;48.852;9.882;2023-06-22T13:02:42;11.27;;;4.88;;
18210;SDS011;9231;48.852;9.882;2023-06-22T13:05:08;10.40;;;5.95;;
18210;SDS011;9231;48.852;9.882;2023-06-22T13:07:35;11.93;;;5.20;;
18210;SDS011;9231;48.852;9.882;2023-06-22T13:10:01;15.85;;;5.72;;
18210;SDS011;9231;48.852;9.882;2023-06-22T13:12:29;13.68;;;5.47;;
18210;SDS011;9231;48.852;9.882;2023-06-22T13:14:56;15.68;;;5.50;;
18210;SDS011;9231;48.852;9.882;2023-06-22T13:17:22;37.92;;;7.43;;
18210;SDS011;9231;48.852;9.882;2023-06-22T13:19:49;11.70;;;5.35;;
18210;SDS011;9231;48.852;9.882;2023-06-22T13:22:25;12.10;;;5.18;;
18210;SDS011;9231;48.852;9.882;2023-06-22T13:24:52;11.57;;;5.60;;
18210;SDS011;9231;48.852;9.882;2023-06-22T13:27:18;14.73;;;5.35;;
18210;SDS011;9231;48.852;9.882;2023-06-22T13:29:46;14.40;;;5.28;;
18210;SDS011;9231;48.852;9.882;2023-06-22T13:32:12;11.70;;;5.35;;
18210;SDS011;9231;48.852;9.882;2023-06-22T13:34:39;14.43;;;5.53;;
18210;SDS011;9231;48.852;9.882;2023-06-22T13:37:05;12.90;;;5.45;;
18210;SDS011;9231;48.852;9.882;2023-06-22T13:39:32;7.55;;;5.18;;
18210;SDS011;9231;48.852;9.882;2023-06-22T13:41:58;12.75;;;5.70;;
18210;SDS011;9231;48.852;9.882;2023-06-22T13:44:25;11.32;;;5.65;;
18210;SDS011;9231;48.852;9.882;2023-06-22T13:46:55;11.68;;;5.85;;
18210;SDS011;9231;48.852;9.882;2023-06-22T13:49:21;11.45;;;5.32;;
18210;SDS011;9231;48.852;9.882;2023-06-22T13:51:48;18.08;;;5.90;;
18210;SDS011;9231;48.852;9.882;2023-06-22T13:54:15;11.25;;;5.57;;
18210;SDS011;9231;48.852;9.882;2023-06-22T13:56:42;11.68;;;5.30;;
18210;SDS011;9231;48.852;9.882;2023-06-22T13:59:08;12.38;;;4.82;;
18210;SDS011;9231;48.852;9.882;2023-06-22T14:01:35;13.13;;;5.53;;
18210;SDS011;9231;48.852;9.882;2023-06-22T14:04:03;12.43;;;5.25;;
18210;SDS011;9231;48.852;9.882;2023-06-22T14:06:30;13.35;;;6.07;;
18210;SDS011;9231;48.852;9.882;2023-06-22T14:08:56;13.57;;;5.22;;
18210;SDS011;9231;48.852;9.882;2023-06-22T14:11:23;11.07;;;5.45;;
18210;SDS011;9231;48.852;9.882;2023-06-22T14:13:49;10.20;;;5.25;;
18210;SDS011;9231;48.852;9.882;2023-06-22T14:16:16;11.15;;;5.38;;
18210;SDS011;9231;48.852;9.882;2023-06-22T14:18:42;12.82;;;5.53;;
18210;SDS011;9231;48.852;9.882;2023-06-22T14:21:10;10.80;;;4.75;;
18210;SDS011;9231;48.852;9.882;2023-06-22T14:23:36;14.68;;;5.18;;
18210;SDS011;9231;48.852;9.882;2023-06-22T14:26:03;13.13;;;5.38;;
18210;SDS011;9231;48.852;9.882;2023-06-22T14:28:30;11.73;;;5.20;;
18210;SDS011;9231;48.852;9.882;2023-06-22T14:30:56;8.85;;;5.43;;
18210;SDS011;9231;48.852;9.882;2023-06-22T14:33:23;16.67;;;5.18;;
18210;SDS011;9231;48.852;9.882;2023-06-22T14:35:49;12.23;;;5.20;;
18210;SDS011;9231;48.852;9.882;2023-06-22T14:38:17;11.38;;;5.50;;
18210;SDS011;9231;48.852;9.882;2023-06-22T14:40:43;10.75;;;5.20;;
18210;SDS011;9231;48.852;9.882;2023-06-22T14:43:10;16.17;;;5.53;;
18210;SDS011;9231;48.852;9.882;2023-06-22T14:45:36;9.77;;;4.90;;
18210;SDS011;9231;48.852;9.882;2023-06-22T14:48:03;10.52;;;4.55;;
18210;SDS011;9231;48.852;9.882;2023-06-22T14:50:29;14.63;;;5.38;;
18210;SDS011;9231;48.852;9.882;2023-06-22T14:52:56;10.38;;;5.15;;
18210;SDS011;9231;48.852;9.882;2023-06-22T14:55:23;13.73;;;5.13;;